createdAt,value
2023-03-23T15:58:13.355Z,68.25
2023-03-23T16:00:43.954Z,68.18
2023-03-23T16:03:22.842Z,68.45
2023-03-23T16:05:52.103Z,68.80
2023-03-23T16:08:21.415Z,69.00
2023-03-23T16:10:51.192Z,69.23
2023-03-23T16:13:19.879Z,69.05
2023-03-23T16:15:48.872Z,70.08
2023-03-23T16:18:19.810Z,71.79
2023-03-23T16:20:49.727Z,72.34
2023-03-23T16:23:19.026Z,72.74
2023-03-23T16:25:47.704Z,73.26
2023-03-23T16:28:17.443Z,73.66
2023-03-23T16:30:46.274Z,73.60
2023-03-23T16:33:15.213Z,74.21
2023-03-23T16:35:44.537Z,74.63
2023-03-23T16:38:16.699Z,74.89
2023-03-23T16:40:47.166Z,75.37
2023-03-23T16:43:16.892Z,75.86
2023-03-23T16:45:47.473Z,75.61
2023-03-23T16:48:18.268Z,76.31
2023-03-23T16:50:48.097Z,76.10
2023-03-23T16:53:17.484Z,76.23
2023-03-23T16:55:48.698Z,76.22
2023-03-23T16:58:18.567Z,75.51
2023-03-23T17:00:52.743Z,75.52
2023-03-23T17:03:22.469Z,75.40
2023-03-23T17:05:52.835Z,75.39
2023-03-23T17:08:21.718Z,75.62
2023-03-23T17:10:51.831Z,75.46
2023-03-23T17:13:21.722Z,75.50
2023-03-23T17:15:53.789Z,75.31
2023-03-23T17:18:25.414Z,75.30
2023-03-23T17:20:55.127Z,75.48
2023-03-23T17:23:24.890Z,75.61
2023-03-23T17:25:55.262Z,75.82
2023-03-23T17:28:24.707Z,75.81
2023-03-23T17:30:55.097Z,76.00
2023-03-23T17:33:25.030Z,75.84
2023-03-23T17:35:55.490Z,76.22
2023-03-23T17:38:25.761Z,76.09
2023-03-23T17:40:59.414Z,76.07
2023-03-23T17:43:30.918Z,76.41
2023-03-23T17:46:01.261Z,76.09
2023-03-23T17:48:31.517Z,75.68
2023-03-23T17:51:02.786Z,75.53
2023-03-23T17:53:40.353Z,75.77
2023-03-23T17:56:13.026Z,75.95
2023-03-23T17:58:42.703Z,76.07
2023-03-23T18:01:13.996Z,76.03
2023-03-23T18:03:45.365Z,75.98
2023-03-23T18:06:15.625Z,75.97
2023-03-23T18:08:46.519Z,76.37
2023-03-23T18:11:18.343Z,76.12
2023-03-23T18:13:49.594Z,76.50
2023-03-23T18:16:24.398Z,76.78
2023-03-23T18:18:56.421Z,77.66
2023-03-23T18:21:27.755Z,78.16
2023-03-23T18:23:59.527Z,78.25
2023-03-23T18:26:33.244Z,78.19
2023-03-23T18:29:04.619Z,78.30
2023-03-23T18:31:40.724Z,78.52
2023-03-23T18:34:11.609Z,78.22
2023-03-23T18:36:42.482Z,77.88
2023-03-23T18:39:13.604Z,77.80
2023-03-23T18:41:44.485Z,77.80
2023-03-23T18:44:16.411Z,78.36
2023-03-23T18:46:46.744Z,78.09
2023-03-23T18:49:17.168Z,78.37
2023-03-23T18:51:50.127Z,78.37
2023-03-23T18:54:20.526Z,78.16
2023-03-23T18:56:51.419Z,78.13
2023-03-23T18:59:25.332Z,78.27
2023-03-23T19:01:56.518Z,78.17
2023-03-23T19:04:32.921Z,78.30
2023-03-23T19:07:04.567Z,78.41
2023-03-23T19:09:36.225Z,78.19
2023-03-23T19:12:13.346Z,78.47
2023-03-23T19:14:45.732Z,78.53
2023-03-23T19:17:19.254Z,78.25
2023-03-23T19:19:50.434Z,78.34
2023-03-23T19:22:22.005Z,78.60
2023-03-23T19:24:54.950Z,78.68
2023-03-23T19:27:26.417Z,78.66
2023-03-23T19:29:56.904Z,78.42
2023-03-23T19:32:29.922Z,78.58
2023-03-23T19:35:03.381Z,78.64
2023-03-23T19:37:45.248Z,79.09
2023-03-23T19:40:49.877Z,79.30
2023-03-23T19:43:09.953Z,79.33
2023-03-23T19:45:42.860Z,79.57
2023-03-23T19:48:13.926Z,79.73
2023-03-23T19:50:49.208Z,79.95
2023-03-23T19:53:21.567Z,80.20
2023-03-23T19:55:55.189Z,80.41
2023-03-23T19:58:28.380Z,80.53
2023-03-23T20:01:03.933Z,80.74
2023-03-23T20:03:36.815Z,80.71
2023-03-23T20:06:13.045Z,80.79
2023-03-23T20:08:48.776Z,80.85
2023-03-23T20:11:23.314Z,81.05
2023-03-23T20:13:56.653Z,81.28
2023-03-23T20:16:29.218Z,81.28
2023-03-23T20:19:02.929Z,81.30
2023-03-23T20:21:36.293Z,81.36
2023-03-23T20:24:09.530Z,81.37
2023-03-23T20:26:42.518Z,81.39
2023-03-23T20:29:15.163Z,81.26
2023-03-23T20:31:47.096Z,81.17
2023-03-23T20:34:29.728Z,81.26
2023-03-23T20:37:02.849Z,81.25
2023-03-23T20:39:38.136Z,81.36
2023-03-23T20:42:09.092Z,81.39
2023-03-23T20:44:40.675Z,81.72
2023-03-23T20:47:14.598Z,82.12
2023-03-23T20:49:53.184Z,82.33
2023-03-23T20:52:26.377Z,82.61
2023-03-23T20:54:57.496Z,83.02
2023-03-23T20:57:28.041Z,83.18
2023-03-23T20:59:58.587Z,83.40
2023-03-23T21:02:30.536Z,83.54
2023-03-23T21:05:06.991Z,83.60
2023-03-23T21:07:37.476Z,83.77
2023-03-23T21:10:10.057Z,83.93
2023-03-23T21:12:40.307Z,84.12
2023-03-23T21:15:10.466Z,84.29
2023-03-23T21:17:41.309Z,84.56
2023-03-23T21:20:12.411Z,84.75
2023-03-23T21:22:43.948Z,84.96
2023-03-23T21:25:15.827Z,85.25
2023-03-23T21:27:44.609Z,85.30
2023-03-23T21:30:13.870Z,85.45
2023-03-23T21:32:43.327Z,85.64
2023-03-23T21:35:13.025Z,85.87
2023-03-23T21:37:42.327Z,85.93
2023-03-23T21:40:14.388Z,86.02
2023-03-23T21:42:44.707Z,86.14
2023-03-23T21:45:18.907Z,86.48
2023-03-23T21:47:48.971Z,86.94
2023-03-23T21:50:18.349Z,87.35
2023-03-23T21:52:51.334Z,87.97
2023-03-23T21:55:20.327Z,88.25
2023-03-23T21:57:49.308Z,88.54
2023-03-23T22:00:19.214Z,88.83
2023-03-23T22:02:49.085Z,89.06
2023-03-23T22:05:18.418Z,89.17
2023-03-23T22:07:48.578Z,89.12
2023-03-23T22:10:17.648Z,89.13
2023-03-23T22:12:48.274Z,88.98
2023-03-23T22:15:18.401Z,88.75
2023-03-23T22:17:47.233Z,88.58
2023-03-23T22:20:16.182Z,88.26
2023-03-23T22:22:44.956Z,88.36
2023-03-23T22:25:14.268Z,88.44
2023-03-23T22:27:43.366Z,88.49
2023-03-23T22:30:13.178Z,88.56
2023-03-23T22:32:41.959Z,88.47
2023-03-23T22:35:13.110Z,88.55
2023-03-23T22:37:41.917Z,88.53
2023-03-23T22:40:12.008Z,88.52
2023-03-23T22:42:41.106Z,88.57
2023-03-23T22:45:10.104Z,88.54
2023-03-23T22:47:39.346Z,88.64
2023-03-23T22:50:09.833Z,88.68
2023-03-23T22:52:38.965Z,88.72
2023-03-23T22:55:09.213Z,88.76
2023-03-23T22:57:37.948Z,88.96
2023-03-23T23:00:15.204Z,89.18
2023-03-23T23:02:44.239Z,89.40
2023-03-23T23:05:13.694Z,89.37
2023-03-23T23:07:43.039Z,89.62
2023-03-23T23:10:11.827Z,89.94
2023-03-23T23:12:42.674Z,90.04
2023-03-23T23:15:13.493Z,90.09
2023-03-23T23:17:42.716Z,90.09
2023-03-23T23:20:13.261Z,89.89
2023-03-23T23:22:44.523Z,89.85
2023-03-23T23:25:14.165Z,89.69
2023-03-23T23:27:43.470Z,89.75
2023-03-23T23:30:12.968Z,89.61
2023-03-23T23:32:43.312Z,89.54
2023-03-23T23:35:14.242Z,89.39
2023-03-23T23:37:43.040Z,89.35
2023-03-23T23:40:15.699Z,89.29
2023-03-23T23:42:46.603Z,89.24
2023-03-23T23:45:16.465Z,89.29
2023-03-23T23:47:47.070Z,89.45
2023-03-23T23:50:16.064Z,89.99
2023-03-23T23:52:45.462Z,90.21
2023-03-23T23:55:18.362Z,90.24
2023-03-23T23:57:48.484Z,90.20
